createdAt,value
2022-08-14T00:02:27.849Z,23.40
2022-08-14T00:04:59.918Z,23.50
2022-08-14T00:07:31.228Z,23.40
2022-08-14T00:10:49.437Z,23.40
2022-08-14T00:12:56.244Z,23.40
2022-08-14T00:15:29.711Z,23.40
2022-08-14T00:18:00.498Z,23.30
2022-08-14T00:20:35.968Z,23.30
2022-08-14T00:23:16.329Z,23.40
2022-08-14T00:25:58.773Z,23.10
2022-08-14T00:28:35.207Z,23.10
2022-08-14T00:31:04.779Z,23.10
2022-08-14T00:33:51.881Z,23.10
2022-08-14T00:36:47.035Z,23.00
2022-08-14T00:39:17.965Z,23.00
2022-08-14T00:41:48.990Z,22.90
2022-08-14T00:44:27.493Z,22.90
2022-08-14T00:47:00.997Z,22.80
2022-08-14T00:49:38.040Z,22.90
2022-08-14T00:52:11.533Z,22.90
2022-08-14T00:54:43.093Z,22.80
2022-08-14T00:57:13.912Z,22.60
2022-08-14T00:59:42.491Z,22.70
2022-08-14T01:02:11.011Z,22.70
2022-08-14T01:04:54.425Z,22.70
2022-08-14T01:07:24.103Z,22.70
2022-08-14T01:09:57.077Z,22.60
2022-08-14T01:12:29.816Z,22.60
2022-08-14T01:14:59.537Z,22.50
2022-08-14T01:17:50.705Z,22.50
2022-08-14T01:20:41.127Z,22.50
2022-08-14T01:23:16.396Z,22.50
2022-08-14T01:25:48.805Z,22.60
2022-08-14T01:28:46.959Z,22.60
2022-08-14T01:31:11.568Z,22.60
2022-08-14T01:33:59.257Z,22.60
2022-08-14T01:36:36.685Z,22.50
2022-08-14T01:39:13.407Z,22.50
2022-08-14T01:41:44.193Z,22.40
2022-08-14T01:44:32.138Z,22.40
2022-08-14T01:47:05.939Z,22.30
2022-08-14T01:49:35.663Z,22.40
2022-08-14T01:52:33.619Z,22.50
2022-08-14T01:55:01.534Z,22.30
2022-08-14T01:57:33.916Z,22.20
2022-08-14T02:00:18.861Z,22.20
2022-08-14T02:02:52.672Z,22.20
2022-08-14T02:05:21.493Z,22.10
2022-08-14T02:07:55.341Z,22.10
2022-08-14T02:10:46.434Z,22.20
2022-08-14T02:13:19.015Z,22.10
2022-08-14T02:15:48.618Z,22.10
2022-08-14T02:18:18.579Z,22.10
2022-08-14T02:20:47.767Z,22.10
2022-08-14T02:23:23.828Z,22.00
2022-08-14T02:26:24.014Z,21.90
2022-08-14T02:28:58.306Z,21.80
2022-08-14T02:31:42.495Z,21.90
2022-08-14T02:34:21.827Z,21.70
2022-08-14T02:37:04.485Z,21.70
2022-08-14T02:39:38.539Z,21.70
2022-08-14T02:42:13.215Z,21.60
2022-08-14T02:44:48.798Z,21.60
2022-08-14T02:47:20.996Z,21.60
2022-08-14T02:49:54.889Z,21.60
2022-08-14T02:52:55.999Z,21.60
2022-08-14T02:55:20.112Z,21.60
2022-08-14T02:57:58.229Z,21.60
2022-08-14T03:00:35.406Z,21.50
2022-08-14T03:03:08.568Z,21.40
2022-08-14T03:05:41.303Z,21.30
2022-08-14T03:08:11.950Z,21.30
2022-08-14T03:10:48.866Z,21.30
2022-08-14T03:13:21.621Z,21.30
2022-08-14T03:15:55.478Z,21.30
2022-08-14T03:18:31.360Z,21.30
2022-08-14T03:21:02.484Z,21.40
2022-08-14T03:23:36.488Z,21.40
2022-08-14T03:26:08.552Z,21.40
2022-08-14T03:28:41.361Z,21.30
2022-08-14T03:31:13.287Z,21.40
2022-08-14T03:33:43.083Z,21.40
2022-08-14T03:37:51.711Z,21.50
2022-08-14T03:39:15.352Z,21.40
2022-08-14T03:41:51.006Z,21.30
2022-08-14T03:45:25.403Z,21.20
2022-08-14T03:47:09.183Z,21.20
2022-08-14T03:49:42.097Z,21.30
2022-08-14T03:52:17.910Z,21.10
2022-08-14T03:55:06.748Z,20.90
2022-08-14T03:57:37.551Z,21.00
2022-08-14T04:00:13.633Z,21.10
2022-08-14T04:02:55.994Z,20.90
2022-08-14T04:05:26.606Z,20.80
2022-08-14T04:08:08.412Z,20.70
2022-08-14T04:10:43.137Z,20.60
2022-08-14T04:13:13.263Z,20.70
2022-08-14T04:15:56.658Z,20.60
2022-08-14T04:18:30.715Z,20.60
2022-08-14T04:21:01.088Z,20.50
2022-08-14T04:23:33.464Z,20.50
2022-08-14T04:26:14.921Z,20.50
2022-08-14T04:29:08.606Z,20.50
2022-08-14T04:33:00.366Z,20.50
2022-08-14T04:34:40.029Z,20.40
2022-08-14T04:37:33.148Z,20.50
2022-08-14T04:40:20.687Z,20.50
2022-08-14T04:43:08.316Z,20.60
2022-08-14T04:45:42.422Z,20.60
2022-08-14T04:48:13.048Z,20.60
2022-08-14T04:50:53.960Z,20.60
2022-08-14T04:53:26.187Z,20.60
2022-08-14T04:55:55.180Z,20.60
2022-08-14T04:58:32.979Z,20.60
2022-08-14T05:01:06.269Z,20.70
2022-08-14T05:03:43.066Z,20.70
2022-08-14T05:06:37.198Z,20.80
2022-08-14T05:09:01.623Z,20.80
2022-08-14T05:11:30.542Z,20.70
2022-08-14T05:14:34.084Z,20.70
2022-08-14T05:16:52.243Z,20.70
2022-08-14T05:19:29.107Z,20.70
2022-08-14T05:22:16.788Z,20.70
2022-08-14T05:24:50.230Z,20.80
2022-08-14T05:27:22.634Z,20.80
2022-08-14T05:29:55.489Z,20.90
2022-08-14T05:32:26.869Z,20.90
2022-08-14T05:35:00.994Z,21.00
2022-08-14T05:37:30.848Z,21.00
2022-08-14T05:40:02.573Z,21.30
2022-08-14T05:42:32.136Z,21.20
2022-08-14T05:45:11.293Z,21.30
2022-08-14T05:47:43.054Z,21.40
2022-08-14T05:50:17.294Z,21.50
2022-08-14T05:52:50.000Z,21.60
2022-08-14T05:55:22.593Z,21.70
2022-08-14T05:57:53.904Z,21.80
2022-08-14T06:00:24.935Z,21.80
2022-08-14T06:02:57.529Z,21.90
2022-08-14T06:05:28.556Z,22.00
2022-08-14T06:07:57.772Z,22.00
2022-08-14T06:10:30.732Z,22.20
2022-08-14T06:13:06.010Z,22.20
2022-08-14T06:15:34.467Z,22.20
2022-08-14T06:18:06.325Z,22.20
2022-08-14T06:20:40.890Z,22.20
2022-08-14T06:23:09.330Z,22.30
2022-08-14T06:25:38.014Z,22.50
2022-08-14T06:28:27.336Z,22.40
2022-08-14T06:30:59.803Z,22.50
2022-08-14T06:35:01.578Z,22.50
2022-08-14T06:36:42.126Z,22.60
2022-08-14T06:39:17.465Z,22.60
2022-08-14T06:42:07.844Z,22.70
2022-08-14T06:45:01.368Z,22.80
2022-08-14T06:47:35.347Z,22.90
2022-08-14T06:50:16.653Z,23.00
2022-08-14T06:52:55.401Z,23.10
2022-08-14T06:55:28.349Z,23.10
2022-08-14T06:58:04.242Z,23.20
2022-08-14T07:00:37.070Z,23.20
2022-08-14T07:03:25.126Z,23.30
2022-08-14T07:05:57.839Z,23.40
2022-08-14T07:08:40.456Z,23.40
2022-08-14T07:11:35.564Z,23.50
2022-08-14T07:14:03.649Z,23.50
2022-08-14T07:16:32.051Z,23.50
2022-08-14T07:19:00.400Z,23.60
2022-08-14T07:21:29.445Z,23.70
2022-08-14T07:24:00.715Z,23.70
2022-08-14T07:26:29.612Z,23.80
2022-08-14T07:28:57.744Z,23.80
2022-08-14T07:31:26.073Z,23.90
2022-08-14T07:33:54.149Z,23.90
2022-08-14T07:36:27.819Z,24.00
2022-08-14T07:39:03.244Z,24.00
2022-08-14T07:41:35.697Z,24.10
2022-08-14T07:44:31.951Z,24.10
2022-08-14T07:46:57.940Z,24.10
2022-08-14T07:49:26.808Z,24.30
2022-08-14T07:51:54.977Z,24.30
2022-08-14T07:54:29.700Z,24.50
2022-08-14T07:57:00.023Z,24.40
2022-08-14T07:59:40.899Z,24.40
2022-08-14T08:02:18.956Z,24.50
2022-08-14T08:04:52.938Z,24.50
2022-08-14T08:07:22.862Z,24.60
2022-08-14T08:09:56.954Z,24.70
2022-08-14T08:12:30.935Z,24.90
2022-08-14T08:15:05.782Z,24.90
2022-08-14T08:17:38.567Z,25.00
2022-08-14T08:20:12.101Z,25.00
2022-08-14T08:22:47.919Z,25.10
2022-08-14T08:25:18.991Z,25.10
2022-08-14T08:27:59.936Z,25.30
2022-08-14T08:30:29.484Z,25.30
2022-08-14T08:33:01.138Z,25.30
2022-08-14T08:35:47.231Z,25.50
2022-08-14T08:39:18.838Z,25.50
2022-08-14T08:41:15.612Z,25.70
2022-08-14T08:43:47.031Z,25.70
2022-08-14T08:46:21.370Z,25.90
2022-08-14T08:51:25.025Z,26.00
2022-08-14T08:54:04.032Z,26.10
2022-08-14T08:56:40.199Z,26.10
2022-08-14T08:59:22.040Z,26.30
2022-08-14T09:01:57.679Z,26.40
2022-08-14T09:04:26.468Z,26.60
2022-08-14T09:07:09.426Z,26.70
2022-08-14T09:09:54.088Z,26.90
2022-08-14T09:12:32.547Z,27.00
2022-08-14T09:15:11.455Z,27.10
2022-08-14T09:17:42.388Z,27.30
2022-08-14T09:20:12.587Z,27.40
2022-08-14T09:22:47.575Z,27.50
2022-08-14T09:25:17.218Z,27.70
2022-08-14T09:27:51.686Z,27.90
2022-08-14T09:30:33.126Z,28.00
2022-08-14T09:33:22.593Z,28.20
2022-08-14T09:36:08.046Z,28.50
2022-08-14T09:38:45.952Z,28.50
2022-08-14T09:42:20.583Z,28.70
2022-08-14T09:44:45.656Z,28.80
2022-08-14T09:47:15.466Z,29.00
2022-08-14T09:49:52.116Z,29.20
2022-08-14T09:52:33.442Z,29.50
2022-08-14T09:55:08.796Z,29.60
2022-08-14T09:57:40.559Z,29.80
2022-08-14T10:00:30.312Z,29.90
2022-08-14T10:03:06.251Z,30.00
2022-08-14T10:05:39.626Z,30.10
2022-08-14T10:08:25.313Z,30.40
2022-08-14T10:11:02.401Z,30.50
2022-08-14T10:13:42.812Z,30.70
2022-08-14T10:16:27.348Z,30.70
2022-08-14T10:19:09.872Z,30.80
2022-08-14T10:21:58.240Z,31.00
2022-08-14T10:24:42.016Z,31.10
2022-08-14T10:27:18.580Z,31.20
2022-08-14T10:29:54.129Z,31.30
2022-08-14T10:32:36.369Z,31.50
2022-08-14T10:35:15.135Z,31.60
2022-08-14T10:37:51.056Z,31.70
2022-08-14T10:40:43.584Z,31.90
2022-08-14T10:43:22.675Z,31.90
2022-08-14T10:47:36.539Z,32.00
2022-08-14T10:49:05.333Z,32.20
2022-08-14T10:51:39.862Z,32.20
2022-08-14T10:54:36.115Z,32.30
2022-08-14T10:57:30.196Z,32.30
2022-08-14T11:00:20.801Z,32.40
2022-08-14T11:03:26.687Z,32.50
2022-08-14T11:07:10.160Z,32.80
2022-08-14T11:09:41.861Z,32.80
2022-08-14T11:12:34.223Z,32.90
2022-08-14T11:15:14.471Z,33.00
2022-08-14T11:21:15.394Z,33.00
2022-08-14T11:23:47.489Z,33.10
2022-08-14T11:26:20.650Z,33.20
2022-08-14T11:28:55.900Z,33.30
2022-08-14T11:31:53.867Z,33.40
2022-08-14T11:34:55.302Z,33.50
2022-08-14T11:40:36.895Z,33.50
2022-08-14T11:43:28.990Z,33.50
2022-08-14T11:46:17.775Z,33.60
2022-08-14T11:49:08.112Z,33.60
2022-08-14T11:51:53.966Z,33.60
2022-08-14T11:54:41.413Z,33.50
2022-08-14T11:57:32.896Z,33.60
2022-08-14T12:00:14.777Z,33.60
2022-08-14T12:03:05.349Z,33.70
2022-08-14T12:05:39.675Z,33.60
2022-08-14T12:08:13.516Z,33.70
2022-08-14T12:10:49.217Z,33.70
2022-08-14T12:13:22.553Z,33.70
2022-08-14T12:16:11.118Z,33.80
2022-08-14T12:18:45.293Z,34.00
2022-08-14T12:21:15.743Z,34.10
2022-08-14T12:23:50.658Z,34.20
2022-08-14T12:26:40.119Z,34.20
2022-08-14T12:29:13.031Z,34.20
2022-08-14T12:32:06.854Z,34.30
2022-08-14T12:34:45.030Z,34.30
2022-08-14T12:37:40.990Z,34.30
2022-08-14T12:40:20.623Z,34.40
2022-08-14T12:42:53.756Z,34.40
2022-08-14T12:46:01.209Z,34.40
2022-08-14T12:48:53.468Z,34.20
2022-08-14T12:51:27.495Z,34.40
2022-08-14T12:54:00.967Z,34.30
2022-08-14T12:56:33.080Z,34.20
2022-08-14T12:59:05.734Z,34.10
2022-08-14T13:01:59.359Z,34.20
2022-08-14T13:04:31.388Z,34.20
2022-08-14T13:07:08.976Z,34.30
2022-08-14T13:09:38.139Z,34.40
2022-08-14T13:12:34.965Z,34.40
2022-08-14T13:15:09.299Z,34.50
2022-08-14T13:17:44.478Z,34.60
2022-08-14T13:20:24.898Z,34.70
2022-08-14T13:22:56.148Z,34.80
2022-08-14T13:25:26.561Z,34.70
2022-08-14T13:28:03.488Z,34.50
2022-08-14T13:30:35.492Z,34.60
2022-08-14T13:33:17.566Z,34.80
2022-08-14T13:35:52.594Z,34.90
2022-08-14T13:38:22.669Z,34.80
2022-08-14T13:40:55.328Z,34.60
2022-08-14T13:43:24.729Z,34.70
2022-08-14T13:46:02.808Z,34.70
2022-08-14T13:48:36.377Z,34.80
2022-08-14T13:51:15.124Z,35.00
2022-08-14T13:54:01.526Z,34.80
2022-08-14T13:56:42.583Z,34.60
2022-08-14T13:59:12.699Z,34.30
2022-08-14T14:01:52.199Z,34.20
2022-08-14T14:04:24.493Z,34.30
2022-08-14T14:06:55.658Z,34.30
2022-08-14T14:09:51.162Z,34.20
2022-08-14T14:15:13.354Z,34.10
2022-08-14T14:18:29.518Z,34.40
2022-08-14T14:20:48.090Z,34.40
2022-08-14T14:23:21.595Z,34.40
2022-08-14T14:25:57.132Z,34.40
2022-08-14T14:28:37.884Z,34.10
2022-08-14T14:31:11.785Z,33.90
2022-08-14T14:33:48.689Z,34.00
2022-08-14T14:36:21.558Z,34.10
2022-08-14T14:38:56.378Z,34.00
2022-08-14T14:41:27.168Z,34.00
2022-08-14T14:44:16.176Z,33.90
2022-08-14T14:46:58.990Z,34.10
2022-08-14T14:49:41.995Z,34.30
2022-08-14T14:52:23.309Z,34.10
2022-08-14T14:55:01.316Z,33.90
2022-08-14T14:57:35.809Z,33.80
2022-08-14T15:00:12.725Z,33.80
2022-08-14T15:02:43.745Z,33.90
2022-08-14T15:05:16.081Z,34.00
2022-08-14T15:07:45.442Z,34.00
2022-08-14T15:10:27.105Z,34.10
2022-08-14T15:13:03.859Z,34.20
2022-08-14T15:15:37.181Z,34.10
2022-08-14T15:18:15.079Z,34.10
2022-08-14T15:20:57.605Z,34.10
2022-08-14T15:23:32.488Z,34.10
2022-08-14T15:26:23.829Z,34.10
2022-08-14T15:29:06.406Z,34.00
2022-08-14T15:31:36.256Z,33.90
2022-08-14T15:34:43.244Z,33.80
2022-08-14T15:37:19.022Z,33.70
2022-08-14T15:39:52.708Z,33.80
2022-08-14T15:42:26.149Z,33.70
2022-08-14T15:45:03.595Z,33.80
2022-08-14T15:47:41.604Z,33.80
2022-08-14T15:50:13.070Z,34.00
2022-08-14T15:52:42.925Z,33.90
2022-08-14T15:55:15.375Z,33.80
2022-08-14T15:58:02.025Z,33.80
2022-08-14T16:00:57.690Z,33.70
2022-08-14T16:03:36.543Z,33.50
2022-08-14T16:06:15.323Z,33.50
2022-08-14T16:08:58.605Z,33.60
2022-08-14T16:11:33.887Z,33.60
2022-08-14T16:14:12.327Z,33.80
2022-08-14T16:16:51.265Z,33.90
2022-08-14T16:19:26.592Z,33.90
2022-08-14T16:23:10.453Z,33.90
2022-08-14T16:25:03.772Z,33.90
2022-08-14T16:30:36.940Z,33.50
2022-08-14T16:33:11.907Z,33.50
2022-08-14T16:36:03.960Z,33.40
2022-08-14T16:38:55.685Z,33.50
2022-08-14T16:40:25.595Z,33.70
2022-08-14T16:41:30.726Z,33.60
2022-08-14T16:44:05.339Z,33.50
2022-08-14T16:46:47.767Z,33.40
2022-08-14T16:49:17.788Z,33.30
2022-08-14T16:51:52.742Z,33.10
2022-08-14T16:54:35.345Z,33.10
2022-08-14T16:57:18.464Z,33.10
2022-08-14T16:59:52.413Z,33.10
2022-08-14T17:02:41.907Z,33.10
2022-08-14T17:05:19.271Z,33.10
2022-08-14T17:08:33.429Z,33.00
2022-08-14T17:11:11.177Z,33.00
2022-08-14T17:13:59.549Z,33.10
2022-08-14T17:16:36.976Z,32.90
2022-08-14T17:19:14.034Z,32.90
2022-08-14T17:21:47.351Z,32.70
2022-08-14T17:24:58.319Z,32.70
2022-08-14T17:27:37.091Z,32.70
2022-08-14T17:30:32.292Z,32.60
2022-08-14T17:33:02.078Z,32.60
2022-08-14T17:35:57.973Z,32.40
2022-08-14T17:38:38.193Z,32.40
2022-08-14T17:41:27.270Z,32.40
2022-08-14T17:44:33.747Z,32.40
2022-08-14T17:47:13.138Z,32.30
2022-08-14T17:49:52.329Z,32.20
2022-08-14T17:52:34.165Z,31.90
2022-08-14T17:55:12.793Z,31.70
2022-08-14T17:58:20.730Z,31.40
2022-08-14T18:01:04.699Z,31.20
2022-08-14T18:03:51.161Z,30.90
2022-08-14T18:06:39.922Z,30.80
2022-08-14T18:09:32.867Z,30.60
2022-08-14T18:12:05.332Z,30.60
2022-08-14T18:18:25.290Z,30.60
2022-08-14T18:21:42.679Z,30.30
2022-08-14T18:23:50.968Z,30.20
2022-08-14T18:26:36.016Z,30.00
2022-08-14T18:29:15.076Z,29.90
2022-08-14T18:31:45.307Z,29.80
2022-08-14T18:34:32.051Z,29.60
2022-08-14T18:37:16.967Z,29.70
2022-08-14T18:40:03.445Z,29.60
2022-08-14T18:42:45.560Z,29.60
2022-08-14T18:45:18.869Z,29.50
2022-08-14T18:48:28.718Z,29.30
2022-08-14T18:51:14.994Z,29.30
2022-08-14T18:53:59.327Z,29.20
2022-08-14T18:56:56.961Z,29.10
2022-08-14T18:59:35.717Z,29.00
2022-08-14T19:02:42.550Z,29.00
2022-08-14T19:05:12.361Z,29.00
2022-08-14T19:07:40.948Z,28.90
2022-08-14T19:10:16.952Z,28.80
2022-08-14T19:13:13.069Z,28.70
2022-08-14T19:15:44.642Z,28.70
2022-08-14T19:18:28.135Z,28.60
2022-08-14T19:20:59.581Z,28.40
2022-08-14T19:23:43.886Z,28.50
2022-08-14T19:26:35.974Z,28.50
2022-08-14T19:29:25.781Z,28.40
2022-08-14T19:31:56.600Z,28.30
2022-08-14T19:34:52.759Z,28.30
2022-08-14T19:37:46.176Z,28.20
2022-08-14T19:40:19.456Z,28.10
2022-08-14T19:42:49.362Z,28.10
2022-08-14T19:45:18.732Z,28.10
2022-08-14T19:47:50.041Z,28.00
2022-08-14T19:50:39.039Z,28.00
2022-08-14T19:53:18.326Z,27.90
2022-08-14T19:55:59.824Z,27.80
2022-08-14T19:58:54.727Z,27.80
2022-08-14T20:01:36.457Z,27.70
2022-08-14T20:04:45.412Z,27.60
2022-08-14T20:07:00.433Z,27.60
2022-08-14T20:11:07.976Z,27.50
2022-08-14T20:12:28.714Z,27.50
2022-08-14T20:15:08.665Z,27.40
2022-08-14T20:17:40.631Z,27.30
2022-08-14T20:20:21.091Z,27.30
2022-08-14T20:23:10.908Z,27.20
2022-08-14T20:25:45.459Z,27.30
2022-08-14T20:28:35.307Z,27.10
2022-08-14T20:31:16.112Z,27.10
2022-08-14T20:34:04.154Z,27.10
2022-08-14T20:36:38.961Z,27.10
2022-08-14T20:39:15.324Z,27.00
2022-08-14T20:41:51.524Z,26.90
2022-08-14T20:44:40.696Z,26.90
2022-08-14T20:47:15.008Z,26.90
2022-08-14T20:49:42.994Z,26.80
2022-08-14T20:52:19.065Z,26.90
2022-08-14T20:54:50.099Z,26.80
2022-08-14T20:57:19.319Z,26.90
2022-08-14T20:59:53.553Z,26.80
2022-08-14T21:02:46.665Z,26.70
2022-08-14T21:05:33.361Z,26.70
2022-08-14T21:08:09.719Z,26.70
2022-08-14T21:10:51.614Z,26.70
2022-08-14T21:14:08.695Z,26.60
2022-08-14T21:16:33.551Z,26.60
2022-08-14T21:19:02.163Z,26.60
2022-08-14T21:21:40.653Z,26.60
2022-08-14T21:24:38.670Z,26.60
2022-08-14T21:27:12.151Z,26.50
2022-08-14T21:29:53.904Z,26.40
2022-08-14T21:32:34.696Z,26.40
2022-08-14T21:35:08.250Z,26.40
2022-08-14T21:37:44.080Z,26.30
2022-08-14T21:40:40.421Z,26.10
2022-08-14T21:43:01.782Z,26.30
2022-08-14T21:45:35.372Z,26.20
2022-08-14T21:48:09.239Z,26.10
2022-08-14T21:51:00.140Z,26.10
2022-08-14T21:53:32.882Z,26.10
2022-08-14T21:56:03.440Z,26.10
2022-08-14T21:58:51.044Z,26.10
2022-08-14T22:01:20.764Z,26.00
2022-08-14T22:03:54.530Z,25.90
2022-08-14T22:06:28.774Z,25.90
2022-08-14T22:08:58.806Z,25.90
2022-08-14T22:11:27.684Z,25.90
2022-08-14T22:14:02.132Z,25.80
2022-08-14T22:17:02.274Z,25.80
2022-08-14T22:19:43.376Z,25.80
2022-08-14T22:22:17.396Z,25.70
2022-08-14T22:24:53.797Z,25.70
2022-08-14T22:27:29.437Z,25.70
2022-08-14T22:29:58.525Z,25.60
2022-08-14T22:32:56.007Z,25.60
2022-08-14T22:35:15.644Z,25.60
2022-08-14T22:37:45.713Z,25.70
2022-08-14T22:40:58.377Z,25.50
2022-08-14T22:43:19.725Z,25.50
2022-08-14T22:45:55.753Z,25.50
2022-08-14T22:48:24.231Z,25.50
2022-08-14T22:50:53.689Z,25.50
2022-08-14T22:53:23.397Z,25.40
2022-08-14T22:55:52.135Z,25.50
2022-08-14T22:58:31.716Z,25.40
2022-08-14T23:01:07.647Z,25.40
2022-08-14T23:03:42.326Z,25.30
2022-08-14T23:07:03.342Z,25.30
2022-08-14T23:09:36.255Z,25.20
2022-08-14T23:11:50.392Z,25.20
2022-08-14T23:14:23.849Z,25.30
2022-08-14T23:16:57.418Z,25.20
2022-08-14T23:19:34.691Z,25.30
2022-08-14T23:22:05.140Z,25.30
2022-08-14T23:24:36.076Z,25.30
2022-08-14T23:27:21.026Z,25.30
2022-08-14T23:29:57.862Z,25.30
2022-08-14T23:32:25.790Z,25.40
2022-08-14T23:34:58.640Z,25.40
2022-08-14T23:37:27.634Z,25.40
2022-08-14T23:39:58.625Z,25.40
2022-08-14T23:42:40.248Z,25.30
2022-08-14T23:45:09.791Z,25.30
2022-08-14T23:47:51.854Z,25.30
2022-08-14T23:50:34.651Z,25.20
2022-08-14T23:53:28.507Z,25.10
2022-08-14T23:56:09.941Z,25.00
2022-08-14T23:58:42.163Z,25.00
